sensor_id;sensor_type;location;lat;lon;timestamp;P1;durP1;ratioP1;P2;durP2;ratioP2
57313;SDS011;53202;50.976;18.216;2022-09-09T00:00:51;38.70;;;17.20;;
57313;SDS011;53202;50.976;18.216;2022-09-09T00:03:24;41.30;;;18.40;;
57313;SDS011;53202;50.976;18.216;2022-09-09T00:09:16;39.30;;;16.40;;
57313;SDS011;53202;50.976;18.216;2022-09-09T00:11:39;35.30;;;16.70;;
57313;SDS011;53202;50.976;18.216;2022-09-09T00:14:11;38.30;;;17.00;;
57313;SDS011;53202;50.976;18.216;2022-09-09T00:24:44;60.90;;;22.10;;
57313;SDS011;53202;50.976;18.216;2022-09-09T00:29:56;46.10;;;20.40;;
57313;SDS011;53202;50.976;18.216;2022-09-09T00:32:27;46.70;;;19.80;;
57313;SDS011;53202;50.976;18.216;2022-09-09T00:34:56;46.40;;;19.50;;
57313;SDS011;53202;50.976;18.216;2022-09-09T00:37:25;42.50;;;19.00;;
57313;SDS011;53202;50.976;18.216;2022-09-09T00:39:53;40.20;;;19.50;;
57313;SDS011;53202;50.976;18.216;2022-09-09T00:42:23;43.10;;;20.90;;
57313;SDS011;53202;50.976;18.216;2022-09-09T00:47:50;47.80;;;21.60;;
57313;SDS011;53202;50.976;18.216;2022-09-09T00:53:11;61.00;;;25.50;;
57313;SDS011;53202;50.976;18.216;2022-09-09T00:56:08;72.30;;;27.10;;
57313;SDS011;53202;50.976;18.216;2022-09-09T00:58:47;77.90;;;28.70;;
57313;SDS011;53202;50.976;18.216;2022-09-09T01:01:23;91.60;;;29.10;;
57313;SDS011;53202;50.976;18.216;2022-09-09T01:03:53;101.60;;;29.40;;
57313;SDS011;53202;50.976;18.216;2022-09-09T01:06:26;92.90;;;30.10;;
57313;SDS011;53202;50.976;18.216;2022-09-09T01:14:44;107.20;;;32.50;;
57313;SDS011;53202;50.976;18.216;2022-09-09T01:19:55;109.50;;;32.60;;
57313;SDS011;53202;50.976;18.216;2022-09-09T01:22:50;115.20;;;37.50;;
57313;SDS011;53202;50.976;18.216;2022-09-09T01:28:24;134.30;;;38.20;;
57313;SDS011;53202;50.976;18.216;2022-09-09T01:30:51;145.10;;;38.40;;
57313;SDS011;53202;50.976;18.216;2022-09-09T01:33:18;139.90;;;40.30;;
57313;SDS011;53202;50.976;18.216;2022-09-09T01:38:26;136.50;;;41.60;;
57313;SDS011;53202;50.976;18.216;2022-09-09T01:40:53;119.90;;;40.20;;
57313;SDS011;53202;50.976;18.216;2022-09-09T01:43:19;127.40;;;42.20;;
57313;SDS011;53202;50.976;18.216;2022-09-09T01:45:46;141.00;;;45.20;;
57313;SDS011;53202;50.976;18.216;2022-09-09T01:48:14;131.30;;;43.50;;
57313;SDS011;53202;50.976;18.216;2022-09-09T01:50:40;139.00;;;44.50;;
57313;SDS011;53202;50.976;18.216;2022-09-09T01:53:06;143.40;;;45.90;;
57313;SDS011;53202;50.976;18.216;2022-09-09T01:55:37;125.90;;;42.50;;
57313;SDS011;53202;50.976;18.216;2022-09-09T01:58:09;157.10;;;45.10;;
57313;SDS011;53202;50.976;18.216;2022-09-09T02:01:03;152.80;;;44.60;;
57313;SDS011;53202;50.976;18.216;2022-09-09T02:03:35;174.00;;;46.70;;
57313;SDS011;53202;50.976;18.216;2022-09-09T02:06:14;144.60;;;46.10;;
57313;SDS011;53202;50.976;18.216;2022-09-09T02:08:53;153.90;;;44.00;;
57313;SDS011;53202;50.976;18.216;2022-09-09T02:11:22;168.60;;;45.80;;
57313;SDS011;53202;50.976;18.216;2022-09-09T02:13:51;159.80;;;46.90;;
57313;SDS011;53202;50.976;18.216;2022-09-09T02:16:22;169.60;;;45.70;;
57313;SDS011;53202;50.976;18.216;2022-09-09T02:19:03;173.50;;;48.40;;
57313;SDS011;53202;50.976;18.216;2022-09-09T02:21:38;145.40;;;46.30;;
57313;SDS011;53202;50.976;18.216;2022-09-09T02:24:07;133.50;;;43.50;;
57313;SDS011;53202;50.976;18.216;2022-09-09T02:26:37;128.60;;;43.30;;
57313;SDS011;53202;50.976;18.216;2022-09-09T02:29:08;127.80;;;42.60;;
57313;SDS011;53202;50.976;18.216;2022-09-09T02:31:35;112.60;;;41.80;;
57313;SDS011;53202;50.976;18.216;2022-09-09T02:34:03;116.10;;;41.00;;
57313;SDS011;53202;50.976;18.216;2022-09-09T02:36:31;101.30;;;39.30;;
57313;SDS011;53202;50.976;18.216;2022-09-09T02:38:58;91.20;;;37.50;;
57313;SDS011;53202;50.976;18.216;2022-09-09T02:41:26;86.60;;;37.10;;
57313;SDS011;53202;50.976;18.216;2022-09-09T02:43:57;70.90;;;34.30;;
57313;SDS011;53202;50.976;18.216;2022-09-09T02:49:30;68.30;;;33.70;;
57313;SDS011;53202;50.976;18.216;2022-09-09T02:52:07;82.10;;;34.10;;
57313;SDS011;53202;50.976;18.216;2022-09-09T02:54:37;70.20;;;34.00;;
57313;SDS011;53202;50.976;18.216;2022-09-09T02:57:21;66.30;;;31.20;;
57313;SDS011;53202;50.976;18.216;2022-09-09T02:59:49;61.10;;;30.70;;
57313;SDS011;53202;50.976;18.216;2022-09-09T03:02:17;70.70;;;32.30;;
57313;SDS011;53202;50.976;18.216;2022-09-09T03:04:44;71.50;;;33.10;;
57313;SDS011;53202;50.976;18.216;2022-09-09T03:07:10;74.70;;;32.70;;
57313;SDS011;53202;50.976;18.216;2022-09-09T03:09:37;58.90;;;30.80;;
57313;SDS011;53202;50.976;18.216;2022-09-09T03:12:03;54.40;;;30.20;;
57313;SDS011;53202;50.976;18.216;2022-09-09T03:14:30;66.60;;;31.80;;
57313;SDS011;53202;50.976;18.216;2022-09-09T03:16:56;63.90;;;31.30;;
57313;SDS011;53202;50.976;18.216;2022-09-09T03:19:26;50.50;;;30.00;;
57313;SDS011;53202;50.976;18.216;2022-09-09T03:21:53;57.70;;;31.40;;
57313;SDS011;53202;50.976;18.216;2022-09-09T03:24:21;59.20;;;31.90;;
57313;SDS011;53202;50.976;18.216;2022-09-09T03:26:48;53.30;;;31.90;;
57313;SDS011;53202;50.976;18.216;2022-09-09T03:29:16;62.00;;;33.00;;
57313;SDS011;53202;50.976;18.216;2022-09-09T03:31:43;58.60;;;31.20;;
57313;SDS011;53202;50.976;18.216;2022-09-09T03:34:09;61.70;;;30.90;;
57313;SDS011;53202;50.976;18.216;2022-09-09T03:36:35;52.00;;;31.00;;
57313;SDS011;53202;50.976;18.216;2022-09-09T03:39:02;54.60;;;30.60;;
57313;SDS011;53202;50.976;18.216;2022-09-09T03:41:28;51.50;;;31.40;;
57313;SDS011;53202;50.976;18.216;2022-09-09T03:43:55;61.30;;;31.60;;
57313;SDS011;53202;50.976;18.216;2022-09-09T03:46:22;52.30;;;32.30;;
57313;SDS011;53202;50.976;18.216;2022-09-09T03:48:49;47.40;;;29.90;;
57313;SDS011;53202;50.976;18.216;2022-09-09T03:51:16;48.50;;;30.20;;
57313;SDS011;53202;50.976;18.216;2022-09-09T03:53:42;56.00;;;31.10;;
57313;SDS011;53202;50.976;18.216;2022-09-09T03:56:08;59.00;;;32.20;;
57313;SDS011;53202;50.976;18.216;2022-09-09T03:58:35;53.00;;;30.50;;
57313;SDS011;53202;50.976;18.216;2022-09-09T04:01:03;44.90;;;28.50;;
57313;SDS011;53202;50.976;18.216;2022-09-09T04:03:34;49.30;;;28.70;;
57313;SDS011;53202;50.976;18.216;2022-09-09T04:06:00;44.40;;;28.60;;
57313;SDS011;53202;50.976;18.216;2022-09-09T04:08:28;42.50;;;27.30;;
57313;SDS011;53202;50.976;18.216;2022-09-09T04:10:56;49.00;;;29.50;;
57313;SDS011;53202;50.976;18.216;2022-09-09T04:13:23;47.60;;;28.00;;
57313;SDS011;53202;50.976;18.216;2022-09-09T04:15:51;48.90;;;27.20;;
57313;SDS011;53202;50.976;18.216;2022-09-09T04:18:18;45.80;;;28.00;;
57313;SDS011;53202;50.976;18.216;2022-09-09T04:20:46;43.90;;;27.60;;
57313;SDS011;53202;50.976;18.216;2022-09-09T04:23:13;36.40;;;26.60;;
57313;SDS011;53202;50.976;18.216;2022-09-09T04:25:56;40.90;;;26.90;;
57313;SDS011;53202;50.976;18.216;2022-09-09T04:30:50;51.90;;;31.50;;
57313;SDS011;53202;50.976;18.216;2022-09-09T04:33:16;43.20;;;29.00;;
57313;SDS011;53202;50.976;18.216;2022-09-09T04:35:45;46.30;;;32.00;;
57313;SDS011;53202;50.976;18.216;2022-09-09T04:38:12;41.60;;;29.70;;
57313;SDS011;53202;50.976;18.216;2022-09-09T04:40:38;41.90;;;29.20;;
57313;SDS011;53202;50.976;18.216;2022-09-09T04:43:08;46.70;;;29.40;;
57313;SDS011;53202;50.976;18.216;2022-09-09T04:45:35;47.30;;;28.10;;
57313;SDS011;53202;50.976;18.216;2022-09-09T04:48:01;41.20;;;28.30;;
57313;SDS011;53202;50.976;18.216;2022-09-09T04:50:28;45.80;;;28.40;;
57313;SDS011;53202;50.976;18.216;2022-09-09T04:52:54;40.00;;;27.10;;
57313;SDS011;53202;50.976;18.216;2022-09-09T04:55:19;37.00;;;26.20;;
57313;SDS011;53202;50.976;18.216;2022-09-09T04:57:45;32.60;;;25.50;;
57313;SDS011;53202;50.976;18.216;2022-09-09T05:00:12;40.00;;;26.60;;
57313;SDS011;53202;50.976;18.216;2022-09-09T05:02:38;35.70;;;24.90;;
57313;SDS011;53202;50.976;18.216;2022-09-09T05:05:05;34.00;;;24.80;;
57313;SDS011;53202;50.976;18.216;2022-09-09T05:07:31;37.80;;;24.20;;
57313;SDS011;53202;50.976;18.216;2022-09-09T05:09:58;42.70;;;25.40;;
57313;SDS011;53202;50.976;18.216;2022-09-09T05:12:24;34.00;;;23.80;;
57313;SDS011;53202;50.976;18.216;2022-09-09T05:14:51;27.70;;;24.10;;
57313;SDS011;53202;50.976;18.216;2022-09-09T05:17:17;32.00;;;25.00;;
57313;SDS011;53202;50.976;18.216;2022-09-09T05:19:43;33.00;;;24.80;;
57313;SDS011;53202;50.976;18.216;2022-09-09T05:22:10;33.60;;;23.90;;
57313;SDS011;53202;50.976;18.216;2022-09-09T05:24:37;28.60;;;23.00;;
57313;SDS011;53202;50.976;18.216;2022-09-09T05:27:03;28.90;;;22.80;;
57313;SDS011;53202;50.976;18.216;2022-09-09T05:29:32;28.60;;;22.80;;
57313;SDS011;53202;50.976;18.216;2022-09-09T05:31:59;27.60;;;22.90;;
57313;SDS011;53202;50.976;18.216;2022-09-09T05:34:25;26.50;;;21.10;;
57313;SDS011;53202;50.976;18.216;2022-09-09T05:36:51;25.20;;;21.20;;
57313;SDS011;53202;50.976;18.216;2022-09-09T05:39:17;23.70;;;21.00;;
57313;SDS011;53202;50.976;18.216;2022-09-09T05:41:43;27.30;;;22.00;;
57313;SDS011;53202;50.976;18.216;2022-09-09T05:44:10;26.70;;;20.70;;
57313;SDS011;53202;50.976;18.216;2022-09-09T05:46:36;28.40;;;20.80;;
57313;SDS011;53202;50.976;18.216;2022-09-09T05:49:04;26.50;;;21.50;;
57313;SDS011;53202;50.976;18.216;2022-09-09T05:51:31;22.80;;;20.40;;
57313;SDS011;53202;50.976;18.216;2022-09-09T05:53:57;21.80;;;19.40;;
57313;SDS011;53202;50.976;18.216;2022-09-09T05:56:24;22.90;;;20.50;;
57313;SDS011;53202;50.976;18.216;2022-09-09T05:58:52;23.30;;;18.70;;
57313;SDS011;53202;50.976;18.216;2022-09-09T06:01:22;22.40;;;17.80;;
57313;SDS011;53202;50.976;18.216;2022-09-09T06:03:50;22.10;;;17.90;;
57313;SDS011;53202;50.976;18.216;2022-09-09T06:06:19;20.80;;;18.10;;
57313;SDS011;53202;50.976;18.216;2022-09-09T06:08:47;20.90;;;18.00;;
57313;SDS011;53202;50.976;18.216;2022-09-09T06:11:17;20.60;;;17.80;;
57313;SDS011;53202;50.976;18.216;2022-09-09T06:13:44;20.00;;;17.80;;
57313;SDS011;53202;50.976;18.216;2022-09-09T06:16:11;23.00;;;17.10;;
57313;SDS011;53202;50.976;18.216;2022-09-09T06:18:38;17.10;;;15.40;;
57313;SDS011;53202;50.976;18.216;2022-09-09T06:21:08;29.80;;;14.60;;
57313;SDS011;53202;50.976;18.216;2022-09-09T06:23:36;16.60;;;13.40;;
57313;SDS011;53202;50.976;18.216;2022-09-09T06:26:10;17.00;;;12.60;;
57313;SDS011;53202;50.976;18.216;2022-09-09T06:28:38;14.30;;;11.80;;
57313;SDS011;53202;50.976;18.216;2022-09-09T06:31:05;13.80;;;10.80;;
57313;SDS011;53202;50.976;18.216;2022-09-09T06:33:33;12.40;;;10.90;;
57313;SDS011;53202;50.976;18.216;2022-09-09T06:38:30;10.90;;;9.90;;
57313;SDS011;53202;50.976;18.216;2022-09-09T06:40:57;10.80;;;8.90;;
57313;SDS011;53202;50.976;18.216;2022-09-09T06:43:25;12.10;;;8.80;;
57313;SDS011;53202;50.976;18.216;2022-09-09T06:45:59;9.50;;;8.60;;
57313;SDS011;53202;50.976;18.216;2022-09-09T06:48:27;12.30;;;8.90;;
57313;SDS011;53202;50.976;18.216;2022-09-09T06:53:37;10.40;;;7.60;;
57313;SDS011;53202;50.976;18.216;2022-09-09T06:56:17;10.10;;;6.70;;
57313;SDS011;53202;50.976;18.216;2022-09-09T06:58:53;8.90;;;7.20;;
57313;SDS011;53202;50.976;18.216;2022-09-09T07:01:22;6.80;;;5.90;;
57313;SDS011;53202;50.976;18.216;2022-09-09T07:03:50;7.40;;;4.80;;
57313;SDS011;53202;50.976;18.216;2022-09-09T07:06:19;7.70;;;4.90;;
57313;SDS011;53202;50.976;18.216;2022-09-09T07:08:54;8.20;;;5.10;;
57313;SDS011;53202;50.976;18.216;2022-09-09T07:11:25;6.30;;;4.60;;
57313;SDS011;53202;50.976;18.216;2022-09-09T07:13:53;6.50;;;5.00;;
57313;SDS011;53202;50.976;18.216;2022-09-09T07:16:19;7.50;;;4.30;;
57313;SDS011;53202;50.976;18.216;2022-09-09T07:18:48;5.00;;;4.30;;
57313;SDS011;53202;50.976;18.216;2022-09-09T07:21:16;6.30;;;4.30;;
57313;SDS011;53202;50.976;18.216;2022-09-09T07:23:42;5.30;;;4.10;;
57313;SDS011;53202;50.976;18.216;2022-09-09T07:26:10;5.80;;;4.50;;
57313;SDS011;53202;50.976;18.216;2022-09-09T07:28:38;4.40;;;3.90;;
57313;SDS011;53202;50.976;18.216;2022-09-09T07:31:12;6.70;;;4.50;;
57313;SDS011;53202;50.976;18.216;2022-09-09T07:33:40;6.90;;;4.10;;
57313;SDS011;53202;50.976;18.216;2022-09-09T07:36:08;5.70;;;4.00;;
57313;SDS011;53202;50.976;18.216;2022-09-09T07:38:38;10.20;;;4.40;;
57313;SDS011;53202;50.976;18.216;2022-09-09T07:41:07;6.20;;;3.90;;
57313;SDS011;53202;50.976;18.216;2022-09-09T07:43:38;4.80;;;3.30;;
57313;SDS011;53202;50.976;18.216;2022-09-09T07:46:06;9.80;;;4.00;;
57313;SDS011;53202;50.976;18.216;2022-09-09T07:48:32;9.10;;;3.90;;
57313;SDS011;53202;50.976;18.216;2022-09-09T07:51:07;6.90;;;3.80;;
57313;SDS011;53202;50.976;18.216;2022-09-09T07:53:37;4.70;;;3.20;;
57313;SDS011;53202;50.976;18.216;2022-09-09T07:56:05;3.50;;;3.10;;
57313;SDS011;53202;50.976;18.216;2022-09-09T07:58:33;4.70;;;3.80;;
57313;SDS011;53202;50.976;18.216;2022-09-09T08:00:59;4.60;;;3.80;;
57313;SDS011;53202;50.976;18.216;2022-09-09T08:03:25;9.20;;;3.80;;
57313;SDS011;53202;50.976;18.216;2022-09-09T08:05:52;4.60;;;3.10;;
57313;SDS011;53202;50.976;18.216;2022-09-09T08:08:18;4.40;;;3.00;;
57313;SDS011;53202;50.976;18.216;2022-09-09T08:10:44;8.90;;;3.40;;
57313;SDS011;53202;50.976;18.216;2022-09-09T08:13:10;4.20;;;3.20;;
57313;SDS011;53202;50.976;18.216;2022-09-09T08:15:38;9.10;;;3.00;;
57313;SDS011;53202;50.976;18.216;2022-09-09T08:18:05;6.30;;;2.40;;
57313;SDS011;53202;50.976;18.216;2022-09-09T08:20:31;3.70;;;2.40;;
57313;SDS011;53202;50.976;18.216;2022-09-09T08:22:57;6.50;;;2.50;;
57313;SDS011;53202;50.976;18.216;2022-09-09T08:25:23;5.80;;;2.90;;
57313;SDS011;53202;50.976;18.216;2022-09-09T08:27:49;3.60;;;2.50;;
57313;SDS011;53202;50.976;18.216;2022-09-09T08:30:15;2.50;;;2.00;;
57313;SDS011;53202;50.976;18.216;2022-09-09T08:32:41;4.80;;;2.90;;
57313;SDS011;53202;50.976;18.216;2022-09-09T08:35:08;2.60;;;2.10;;
57313;SDS011;53202;50.976;18.216;2022-09-09T08:37:34;4.80;;;2.00;;
57313;SDS011;53202;50.976;18.216;2022-09-09T08:40:00;7.10;;;2.10;;
57313;SDS011;53202;50.976;18.216;2022-09-09T08:42:33;2.00;;;1.40;;
57313;SDS011;53202;50.976;18.216;2022-09-09T08:45:06;8.10;;;1.40;;
57313;SDS011;53202;50.976;18.216;2022-09-09T08:50:43;5.60;;;2.20;;
57313;SDS011;53202;50.976;18.216;2022-09-09T08:53:16;4.70;;;1.70;;
57313;SDS011;53202;50.976;18.216;2022-09-09T08:55:48;4.60;;;1.90;;
57313;SDS011;53202;50.976;18.216;2022-09-09T08:58:17;4.80;;;2.20;;
57313;SDS011;53202;50.976;18.216;2022-09-09T09:00:57;5.10;;;2.50;;
57313;SDS011;53202;50.976;18.216;2022-09-09T09:03:48;6.90;;;2.30;;
57313;SDS011;53202;50.976;18.216;2022-09-09T09:09:38;3.40;;;1.80;;
57313;SDS011;53202;50.976;18.216;2022-09-09T09:12:25;4.50;;;2.00;;
57313;SDS011;53202;50.976;18.216;2022-09-09T09:14:54;4.80;;;2.40;;
57313;SDS011;53202;50.976;18.216;2022-09-09T09:17:22;4.10;;;1.70;;
57313;SDS011;53202;50.976;18.216;2022-09-09T09:19:50;6.00;;;1.70;;
57313;SDS011;53202;50.976;18.216;2022-09-09T09:22:19;5.10;;;2.10;;
57313;SDS011;53202;50.976;18.216;2022-09-09T09:24:56;3.70;;;1.80;;
57313;SDS011;53202;50.976;18.216;2022-09-09T09:27:43;5.60;;;2.20;;
57313;SDS011;53202;50.976;18.216;2022-09-09T09:30:25;3.40;;;1.70;;
57313;SDS011;53202;50.976;18.216;2022-09-09T09:32:56;4.50;;;1.30;;
57313;SDS011;53202;50.976;18.216;2022-09-09T09:35:27;3.60;;;1.90;;
57313;SDS011;53202;50.976;18.216;2022-09-09T09:37:53;5.60;;;1.50;;
57313;SDS011;53202;50.976;18.216;2022-09-09T09:40:20;4.40;;;2.30;;
57313;SDS011;53202;50.976;18.216;2022-09-09T09:42:55;7.20;;;1.90;;
57313;SDS011;53202;50.976;18.216;2022-09-09T09:45:27;5.90;;;1.30;;
57313;SDS011;53202;50.976;18.216;2022-09-09T09:47:58;2.30;;;1.30;;
57313;SDS011;53202;50.976;18.216;2022-09-09T09:52:54;3.00;;;1.50;;
57313;SDS011;53202;50.976;18.216;2022-09-09T09:55:22;4.40;;;1.90;;
57313;SDS011;53202;50.976;18.216;2022-09-09T09:57:50;2.00;;;1.40;;
57313;SDS011;53202;50.976;18.216;2022-09-09T10:00:18;4.20;;;1.30;;
57313;SDS011;53202;50.976;18.216;2022-09-09T10:02:46;3.40;;;1.30;;
57313;SDS011;53202;50.976;18.216;2022-09-09T10:05:21;2.10;;;1.40;;
57313;SDS011;53202;50.976;18.216;2022-09-09T10:21:36;3.90;;;1.70;;
57313;SDS011;53202;50.976;18.216;2022-09-09T10:30:01;7.70;;;2.40;;
57313;SDS011;53202;50.976;18.216;2022-09-09T10:32:36;6.50;;;1.90;;
57313;SDS011;53202;50.976;18.216;2022-09-09T10:35:25;3.90;;;1.90;;
57313;SDS011;53202;50.976;18.216;2022-09-09T10:52:32;3.00;;;1.40;;
57313;SDS011;53202;50.976;18.216;2022-09-09T10:55:23;3.90;;;1.20;;
57313;SDS011;53202;50.976;18.216;2022-09-09T10:57:52;4.00;;;1.80;;
57313;SDS011;53202;50.976;18.216;2022-09-09T11:00:21;3.60;;;1.40;;
57313;SDS011;53202;50.976;18.216;2022-09-09T11:02:50;3.10;;;1.70;;
57313;SDS011;53202;50.976;18.216;2022-09-09T11:05:28;2.50;;;1.00;;
57313;SDS011;53202;50.976;18.216;2022-09-09T11:08:04;2.80;;;1.20;;
57313;SDS011;53202;50.976;18.216;2022-09-09T11:10:44;2.30;;;1.10;;
57313;SDS011;53202;50.976;18.216;2022-09-09T11:13:17;4.10;;;1.30;;
57313;SDS011;53202;50.976;18.216;2022-09-09T11:15:50;2.40;;;1.60;;
57313;SDS011;53202;50.976;18.216;2022-09-09T11:18:19;7.20;;;1.30;;
57313;SDS011;53202;50.976;18.216;2022-09-09T11:20:49;5.20;;;1.40;;
57313;SDS011;53202;50.976;18.216;2022-09-09T11:23:23;7.40;;;1.50;;
57313;SDS011;53202;50.976;18.216;2022-09-09T11:25:55;3.60;;;1.20;;
57313;SDS011;53202;50.976;18.216;2022-09-09T11:31:35;3.70;;;1.20;;
57313;SDS011;53202;50.976;18.216;2022-09-09T11:34:17;6.20;;;1.50;;
57313;SDS011;53202;50.976;18.216;2022-09-09T11:37:11;4.20;;;1.30;;
57313;SDS011;53202;50.976;18.216;2022-09-09T11:39:51;3.20;;;1.20;;
57313;SDS011;53202;50.976;18.216;2022-09-09T11:42:35;3.30;;;1.20;;
57313;SDS011;53202;50.976;18.216;2022-09-09T11:45:09;4.40;;;1.30;;
57313;SDS011;53202;50.976;18.216;2022-09-09T11:47:36;5.20;;;1.10;;
57313;SDS011;53202;50.976;18.216;2022-09-09T11:50:26;4.60;;;1.30;;
57313;SDS011;53202;50.976;18.216;2022-09-09T11:53:04;4.60;;;1.10;;
57313;SDS011;53202;50.976;18.216;2022-09-09T11:55:33;4.90;;;1.10;;
57313;SDS011;53202;50.976;18.216;2022-09-09T11:58:03;4.00;;;1.20;;
57313;SDS011;53202;50.976;18.216;2022-09-09T12:00:40;1.80;;;1.20;;
57313;SDS011;53202;50.976;18.216;2022-09-09T12:03:31;3.20;;;1.10;;
57313;SDS011;53202;50.976;18.216;2022-09-09T12:08:58;2.00;;;1.20;;
57313;SDS011;53202;50.976;18.216;2022-09-09T12:11:32;2.40;;;1.20;;
57313;SDS011;53202;50.976;18.216;2022-09-09T12:14:00;3.10;;;1.20;;
57313;SDS011;53202;50.976;18.216;2022-09-09T12:16:27;4.20;;;0.70;;
57313;SDS011;53202;50.976;18.216;2022-09-09T12:19:04;2.80;;;0.80;;
57313;SDS011;53202;50.976;18.216;2022-09-09T12:24:42;2.60;;;0.90;;
57313;SDS011;53202;50.976;18.216;2022-09-09T12:27:17;1.90;;;1.00;;
57313;SDS011;53202;50.976;18.216;2022-09-09T12:29:51;5.60;;;1.50;;
57313;SDS011;53202;50.976;18.216;2022-09-09T12:32:24;5.20;;;0.90;;
57313;SDS011;53202;50.976;18.216;2022-09-09T12:34:53;2.20;;;1.00;;
57313;SDS011;53202;50.976;18.216;2022-09-09T12:40:19;2.10;;;1.00;;
57313;SDS011;53202;50.976;18.216;2022-09-09T12:42:53;3.10;;;1.10;;
57313;SDS011;53202;50.976;18.216;2022-09-09T12:45:21;1.60;;;0.80;;
57313;SDS011;53202;50.976;18.216;2022-09-09T12:47:51;2.90;;;0.80;;
57313;SDS011;53202;50.976;18.216;2022-09-09T12:50:21;1.20;;;0.90;;
57313;SDS011;53202;50.976;18.216;2022-09-09T12:52:52;3.30;;;1.30;;
57313;SDS011;53202;50.976;18.216;2022-09-09T12:55:21;4.00;;;0.90;;
57313;SDS011;53202;50.976;18.216;2022-09-09T12:57:51;3.60;;;0.80;;
57313;SDS011;53202;50.976;18.216;2022-09-09T13:00:19;4.00;;;1.40;;
57313;SDS011;53202;50.976;18.216;2022-09-09T13:02:49;2.90;;;1.00;;
57313;SDS011;53202;50.976;18.216;2022-09-09T13:05:28;2.70;;;0.80;;
57313;SDS011;53202;50.976;18.216;2022-09-09T13:08:02;2.20;;;1.00;;
57313;SDS011;53202;50.976;18.216;2022-09-09T13:10:32;9.20;;;1.60;;
57313;SDS011;53202;50.976;18.216;2022-09-09T13:13:01;5.10;;;1.10;;
57313;SDS011;53202;50.976;18.216;2022-09-09T13:15:28;6.90;;;2.00;;
57313;SDS011;53202;50.976;18.216;2022-09-09T13:17:56;3.40;;;1.00;;
57313;SDS011;53202;50.976;18.216;2022-09-09T13:20:24;9.50;;;1.40;;
57313;SDS011;53202;50.976;18.216;2022-09-09T13:22:50;2.40;;;1.20;;
57313;SDS011;53202;50.976;18.216;2022-09-09T13:25:21;5.90;;;1.00;;
57313;SDS011;53202;50.976;18.216;2022-09-09T13:27:56;3.60;;;1.00;;
57313;SDS011;53202;50.976;18.216;2022-09-09T13:30:28;2.40;;;0.90;;
57313;SDS011;53202;50.976;18.216;2022-09-09T13:35:55;5.60;;;1.50;;
57313;SDS011;53202;50.976;18.216;2022-09-09T13:38:24;5.00;;;1.10;;
57313;SDS011;53202;50.976;18.216;2022-09-09T13:40:52;6.00;;;1.10;;
57313;SDS011;53202;50.976;18.216;2022-09-09T13:43:24;4.60;;;0.90;;
57313;SDS011;53202;50.976;18.216;2022-09-09T13:45:52;4.30;;;1.20;;
57313;SDS011;53202;50.976;18.216;2022-09-09T13:48:21;1.60;;;0.90;;
57313;SDS011;53202;50.976;18.216;2022-09-09T13:50:55;2.80;;;0.90;;
57313;SDS011;53202;50.976;18.216;2022-09-09T13:53:24;4.00;;;1.20;;
57313;SDS011;53202;50.976;18.216;2022-09-09T13:55:50;2.80;;;0.90;;
57313;SDS011;53202;50.976;18.216;2022-09-09T13:58:17;4.90;;;1.10;;
57313;SDS011;53202;50.976;18.216;2022-09-09T14:00:44;2.20;;;1.10;;
57313;SDS011;53202;50.976;18.216;2022-09-09T14:03:11;5.80;;;1.40;;
57313;SDS011;53202;50.976;18.216;2022-09-09T14:05:37;4.10;;;0.80;;
57313;SDS011;53202;50.976;18.216;2022-09-09T14:08:04;3.00;;;1.00;;
57313;SDS011;53202;50.976;18.216;2022-09-09T14:10:32;2.80;;;0.90;;
57313;SDS011;53202;50.976;18.216;2022-09-09T14:13:01;6.90;;;1.10;;
57313;SDS011;53202;50.976;18.216;2022-09-09T14:15:27;6.50;;;1.10;;
57313;SDS011;53202;50.976;18.216;2022-09-09T14:17:54;3.50;;;1.10;;
57313;SDS011;53202;50.976;18.216;2022-09-09T14:20:20;2.00;;;0.90;;
57313;SDS011;53202;50.976;18.216;2022-09-09T14:22:46;4.60;;;1.20;;
57313;SDS011;53202;50.976;18.216;2022-09-09T14:25:12;7.60;;;1.10;;
57313;SDS011;53202;50.976;18.216;2022-09-09T14:27:39;5.30;;;1.00;;
57313;SDS011;53202;50.976;18.216;2022-09-09T14:30:06;4.30;;;1.00;;
57313;SDS011;53202;50.976;18.216;2022-09-09T14:32:32;7.00;;;1.60;;
57313;SDS011;53202;50.976;18.216;2022-09-09T14:34:59;2.40;;;0.90;;
57313;SDS011;53202;50.976;18.216;2022-09-09T14:37:26;2.70;;;1.00;;
57313;SDS011;53202;50.976;18.216;2022-09-09T14:39:53;4.20;;;1.10;;
57313;SDS011;53202;50.976;18.216;2022-09-09T14:42:20;5.50;;;1.00;;
57313;SDS011;53202;50.976;18.216;2022-09-09T14:44:47;3.00;;;0.60;;
57313;SDS011;53202;50.976;18.216;2022-09-09T14:47:13;6.20;;;1.20;;
57313;SDS011;53202;50.976;18.216;2022-09-09T14:49:39;1.90;;;1.00;;
57313;SDS011;53202;50.976;18.216;2022-09-09T14:52:05;3.70;;;0.70;;
57313;SDS011;53202;50.976;18.216;2022-09-09T14:54:31;4.20;;;1.30;;
57313;SDS011;53202;50.976;18.216;2022-09-09T14:56:58;2.50;;;1.10;;
57313;SDS011;53202;50.976;18.216;2022-09-09T14:59:24;2.60;;;1.00;;
57313;SDS011;53202;50.976;18.216;2022-09-09T15:01:50;2.10;;;0.90;;
57313;SDS011;53202;50.976;18.216;2022-09-09T15:04:16;4.90;;;1.50;;
57313;SDS011;53202;50.976;18.216;2022-09-09T15:06:43;2.10;;;1.00;;
57313;SDS011;53202;50.976;18.216;2022-09-09T15:09:13;3.20;;;1.10;;
57313;SDS011;53202;50.976;18.216;2022-09-09T15:11:40;2.40;;;1.30;;
57313;SDS011;53202;50.976;18.216;2022-09-09T15:14:07;3.70;;;1.30;;
57313;SDS011;53202;50.976;18.216;2022-09-09T15:16:34;2.10;;;0.80;;
57313;SDS011;53202;50.976;18.216;2022-09-09T15:19:01;14.40;;;1.70;;
57313;SDS011;53202;50.976;18.216;2022-09-09T15:21:28;3.10;;;0.90;;
57313;SDS011;53202;50.976;18.216;2022-09-09T15:23:56;5.50;;;1.30;;
57313;SDS011;53202;50.976;18.216;2022-09-09T15:26:23;7.40;;;1.20;;
57313;SDS011;53202;50.976;18.216;2022-09-09T15:28:50;3.50;;;1.00;;
57313;SDS011;53202;50.976;18.216;2022-09-09T15:31:18;4.80;;;1.40;;
57313;SDS011;53202;50.976;18.216;2022-09-09T15:33:49;10.00;;;1.60;;
57313;SDS011;53202;50.976;18.216;2022-09-09T15:36:18;3.00;;;1.10;;
57313;SDS011;53202;50.976;18.216;2022-09-09T15:38:46;11.70;;;1.70;;
57313;SDS011;53202;50.976;18.216;2022-09-09T15:41:12;4.90;;;1.50;;
57313;SDS011;53202;50.976;18.216;2022-09-09T15:43:42;10.50;;;1.60;;
57313;SDS011;53202;50.976;18.216;2022-09-09T15:46:21;2.60;;;1.40;;
57313;SDS011;53202;50.976;18.216;2022-09-09T15:48:50;4.40;;;1.20;;
57313;SDS011;53202;50.976;18.216;2022-09-09T15:51:16;3.60;;;1.10;;
57313;SDS011;53202;50.976;18.216;2022-09-09T15:53:42;4.70;;;1.50;;
57313;SDS011;53202;50.976;18.216;2022-09-09T15:56:08;3.60;;;1.60;;
57313;SDS011;53202;50.976;18.216;2022-09-09T15:58:35;6.00;;;1.90;;
57313;SDS011;53202;50.976;18.216;2022-09-09T16:01:06;8.20;;;3.50;;
57313;SDS011;53202;50.976;18.216;2022-09-09T16:03:34;7.30;;;2.80;;
57313;SDS011;53202;50.976;18.216;2022-09-09T16:06:02;6.30;;;2.80;;
57313;SDS011;53202;50.976;18.216;2022-09-09T16:08:33;6.40;;;3.10;;
57313;SDS011;53202;50.976;18.216;2022-09-09T16:13:42;5.90;;;3.10;;
57313;SDS011;53202;50.976;18.216;2022-09-09T16:16:11;9.20;;;2.30;;
57313;SDS011;53202;50.976;18.216;2022-09-09T16:18:40;5.00;;;1.80;;
57313;SDS011;53202;50.976;18.216;2022-09-09T16:21:22;7.90;;;1.70;;
57313;SDS011;53202;50.976;18.216;2022-09-09T16:23:54;5.40;;;2.10;;